CYGRCYGP

Guest
Details From CYGR - ILES DE LA MADELEINE
To CYGP - GASPE
Flight Number -
Tags generated
Created
Modified
Stats Distance 136 nm / 251 km
Max Altitude 3,900 ft / 1,189 m
Waypoints 4
Social Downloads 1
Likes 0
Share VATSIM

Download

Looking for another format? Having issues loading an existing format? Contact us
Advertisement - Login to hide

Notes

Basic altitude profile: - Ascent Rate: 1500ft/min - Ascent Speed: 200kts - Cruise Altitude: 16000ft - Cruise Speed: 220kts - Descent Rate: 1200ft/min - Descent Speed: 220kts

Route

CYGR YGR V382 YGP CYGP

ID Type Via Altitude Latitude Longitude Leg Dist Tot Dist Heading (true) Name
O CYGR APT - 0 ft / 0 m 47.42520˚ -61.77708˚ - 0 nm - ILES DE LA MADELEINE
YGR VOR - 100 ft / 30 m 47.43017˚ -61.77392˚ 0 nm 0 nm 23° / 23° GRINDSTONE VOR-DME
YGP VOR V382 (AWY-LO) 3,900 ft / 1,189 m 48.76317˚ -64.40481˚ 132 nm 132 nm 308° / 306° GASPE VOR-DME
O CYGP APT - 0 ft / 0 m 48.77528˚ -64.47861˚ 3 nm 135 nm 284° / 284° GASPE

Altitude Profile

Advertisement - Login to hide

CYGR

Details ICAO CYGR (YGR)
Name ILES DE LA MADELEINE
Region Canada
Timezone America/Halifax (UTC-4.0)
Stats Elevation 35 ft / 11 m (AMSL)
Location 47.425196° -61.777085°
Runways 2
Magnetic Variation 18.422° W

METAR

CYGR 140200Z 22016G26KT 15SM BKN021 BKN150 03/01 A2889 RMK SC5AC1 SLP785

Decode

TAF

TAF AMD TAF AMD CYGR 132336Z 1323/1403 18009KT P6SM BKN090 TEMPO 1323/1403 BKN010 BECMG 1323/1401 23015G25KT RMK NXT FCST WILL BE ISSUED AT 141145Z

Decode

Departure Runways

ID Width Length Bearing (true) Bearing (mag) Surface Threshold Offset Overrun Length
07 150 ft / 46 m 4,485 ft / 1,367 m 52.53° 70.95° Asphalt 0 ft / 0 m 275 ft / 84 m
16 150 ft / 46 m 3,638 ft / 1,109 m 135.50° 153.92° Asphalt 0 ft / 0 m 0 ft / 0 m
25 150 ft / 46 m 4,485 ft / 1,367 m 232.55° 250.97° Asphalt 0 ft / 0 m 0 ft / 0 m
34 150 ft / 46 m 3,638 ft / 1,109 m 315.50° 333.92° Asphalt 0 ft / 0 m 0 ft / 0 m

CYGP

Details ICAO CYGP (YGP)
Name GASPE
Region Canada
Timezone America/Montreal (UTC-5.0)
Stats Elevation 108 ft / 33 m (AMSL)
Location 48.775278° -64.478611°
Runways 1
Magnetic Variation 18.575° W

METAR

CYGP 140200Z 22004KT 15SM FEW030 02/M00 A2865 RMK SC1 SLP706

Decode

TAF

TAF CYGP 140141Z 1402/1414 26007KT P6SM SCT015 OVC030 TEMPO 1402/1403 BKN015 OVC030 FM140300 26010G20KT P6SM BKN025 TEMPO 1403/1409 5SM -SN BKN020 BECMG 1408/1409 26015G30KT RMK NXT FCST BY 140800Z

Decode

Destination Runways

ID Width Length Bearing (true) Bearing (mag) Surface Threshold Offset Overrun Length
11 150 ft / 46 m 4,488 ft / 1,368 m 83.95° 102.53° Asphalt 0 ft / 0 m 0 ft / 0 m
29 150 ft / 46 m 4,488 ft / 1,368 m 263.96° 282.54° Asphalt 0 ft / 0 m 0 ft / 0 m

Approach Navaids

Runway Type Ident Frequency Range Bearing (true) Bearing (mag) Slope Elevation
11 Localiser IGP 110.30 MHz 18 nm / 33 km 83.32° 101.90° - 108 ft / 33 m (AMSL)